Ana Sayfa
METAR-TAF:

METAR-TAF

Havaalanları :

Gaines County Airport

Seminole, Teksas, Amerika Birleşik Devletleri

Enlem: 32-40-31N, Boylam: 102-39-09W, yükseklik: 1010 m

Güncel hava durumu gözlemi

Rapor saat 22:35 UTC de 23 dakika önce yapıldı.
Rüzgar kuzeydoğudan 11 kt ve 17 kt'a kadar ani rüzgarlar
Sıcaklık 17°C
Nem 48%
Basınç 1015 hPa
Görüş mesafesi: 16.1 km
4200 ft yükseklikte parçalı bulutlu

METAR: KGNC 162235Z AUTO 05011G17KT 10SM SCT042 17/06 A2998 RMK AO2 T01730062

Saat: 17:58 (22:58 UTC)


TAF: eksik

4.000'den fazla havaalanı için hava durumu gözlemleri ve tahminleri (METAR ve TAF raporları).

Kullanılabilir istasyonlar harita üzerinde sarı ve kırmızı noktalarla gösterilir.

İstasyonun adını görmek için fareyi noktanın üzerinde gezdirin.

Sonrasında hava gözlem ve tahminlerini görmek için tıklayın.

Haritayı değiştirmek için: yaklaştırmak için siyah artı işaretli yeşil düğmeye ve uzaklaştırmak için de eksi işaretli düğmeye hızla tıklayın; bitişik haritalar için yeşil okları kullanın.


METAR-TAF: